Flight Track Log - Related Links

Times and Time Zones

All times are in EDT time to prevent confusion due to time zone crossing. See the SWA1718 flight status page for this flight to view local times or setup timezone preferences in your user account.

Time Position Orientation Groundspeed Altitude Reporting Facility
EDT Latitude Longitude Course Direction KTS MPH feet Rate Location/Type
Mon 10:04:39 AM 33.9442 -118.4617 221° Southwest 171 197 1,700  Level Los Angeles Center
Mon 10:05:40 AM 33.8997 -118.5086 221° Southwest 218 251 3,800 1,951 Climbing Los Angeles Center
Mon 10:06:42 AM 33.8389 -118.5133 184° South 262 302 5,700 2,390 Climbing Los Angeles Center
Mon 10:07:43 AM 33.7556 -118.5192 183° South 280 322 8,700 2,829 Climbing Los Angeles Center
Mon 10:08:45 AM 33.6872 -118.4475 139° Southeast 321 369 11,500 2,780 Climbing Los Angeles Center
Mon 10:09:46 AM 33.6472 -118.3456 115° Southeast 344 396 14,400 2,780 Climbing Los Angeles Center
Mon 10:10:48 AM 33.6906 -118.2386 64° Northeast 375 432 17,200 2,710 Climbing Los Angeles Center
Mon 10:11:50 AM 33.7458 -118.1294 59° Northeast 389 448 20,000 2,927 Climbing Los Angeles Center
Mon 10:12:51 AM 33.8336 -118.0075 49° Northeast 416 479 23,200 2,222 Climbing Los Angeles Center
Mon 10:14:05 AM 33.9458 -117.9078 36° Northeast 421 484 25,000 794 Climbing Los Angeles Center
Mon 10:15:07 AM 34.0406 -117.8211 37° Northeast 427 491 25,000  Level Los Angeles Center
Mon 10:16:08 AM 34.1294 -117.7269 41° Northeast 427 491 25,000 732 Level Los Angeles Center
Mon 10:17:10 AM 34.2072 -117.6183 49° Northeast 428 493 26,500 1,645 Climbing Los Angeles Center
Mon 10:18:12 AM 34.2889 -117.5072 48° Northeast 440 506 28,400 1,756 Climbing Los Angeles Center
Mon 10:19:13 AM 34.3628 -117.3808 55° Northeast 465 535 30,100 1,778 Climbing Los Angeles Center
Mon 10:20:27 AM 34.4050 -117.2275 72° East 463 533 32,400 2,162 Climbing Los Angeles Center
Mon 10:21:29 AM 34.4614 -117.0247 71° East 457 526 35,000 2,129 Climbing Los Angeles Center
Mon 10:22:31 AM 34.5025 -116.8825 71° East 451 519 36,800 1,512 Climbing Los Angeles Center
Mon 10:23:32 AM 34.5411 -116.7431 71° East 442 509 38,100 1,073 Climbing Los Angeles Center
Mon 10:24:34 AM 34.5797 -116.6025 72° East 441 507 39,000 435 Climbing Los Angeles Center
Mon 10:25:36 AM 34.6194 -116.4606 71° East 444 511 39,000  Level Los Angeles Center
Mon 10:26:37 AM 34.6589 -116.3200 71° East 443 510 39,000  Level Los Angeles Center
Mon 10:27:39 AM 34.7056 -116.1500 71° East 443 510 39,000  Level Los Angeles Center
Mon 10:28:41 AM 34.7433 -116.0100 72° East 440 506 39,000  Level Los Angeles Center
Mon 10:29:43 AM 34.7806 -115.8711 72° East 436 502 39,000  Level Los Angeles Center
Mon 10:30:44 AM 34.8186 -115.7322 72° East 434 499 39,000  Level Los Angeles Center
Mon 10:31:46 AM 34.8558 -115.5939 72° East 433 498 39,000  Level Los Angeles Center
Mon 10:32:48 AM 34.9000 -115.4306 72° East 433 498 39,000  Level Los Angeles Center
Mon 10:33:49 AM 34.9300 -115.3178 90° East 436 502 39,000  Level Los Angeles Center
Mon 10:34:00 AM 34.9002 -115.2531 90° East  Level FlightAware Approximate
Mon 10:34:51 AM 34.9750 -115.1500 72° East 436 502 39,000  Level Los Angeles Center
Mon 10:35:53 AM 35.0122 -115.0086 72° East 438 504 39,000  Level Los Angeles Center
Mon 10:36:55 AM 35.0500 -114.8664 72° East 439 505 39,000  Level Los Angeles Center
Mon 10:37:57 AM 35.0875 -114.7250 72° East 441 507 39,000  Level Los Angeles Center
Mon 10:38:58 AM 35.1239 -114.5839 72° East 438 504 39,000  Level Los Angeles Center
Mon 10:40:00 AM 35.1667 -114.4133 73° East 437 503 39,000  Level Los Angeles Center
Mon 10:41:02 AM 35.2031 -114.2703 73° East 441 507 39,000  Level Los Angeles Center
Mon 10:42:04 AM 35.2403 -114.1269 72° East 444 511 39,000  Level Los Angeles Center
Mon 10:43:05 AM 35.2767 -113.9831 73° East 444 511 39,000  Level Los Angeles Center
Mon 10:44:07 AM 35.3125 -113.8400 73° East 448 516 39,000  Level Los Angeles Center
Mon 10:45:21 AM 35.3481 -113.6956 73° East 447 514 39,000  Level Los Angeles Center
Mon 10:46:23 AM 35.4000 -113.4897 73° East 445 512 39,000  Level Los Angeles Center
Mon 10:47:25 AM 35.4344 -113.3481 73° East 447 514 39,000  Level Los Angeles Center
Mon 10:48:26 AM 35.4706 -113.2011 73° East 443 510 39,000  Level Los Angeles Center
Mon 10:49:28 AM 35.5058 -113.0569 73° East 442 509 39,000  Level Los Angeles Center
Mon 10:50:30 AM 35.5417 -112.9106 73° East 442 509 39,000  Level Los Angeles Center
Mon 10:51:31 AM 35.5769 -112.7664 73° East 443 510 39,000  Level Los Angeles Center
Mon 10:52:33 AM 35.6108 -112.6214 74° East 441 507 39,000  Level Los Angeles Center
Mon 10:53:35 AM 35.6458 -112.4767 73° East 438 504 39,000  Level Los Angeles Center
Mon 10:54:37 AM 35.6800 -112.3356 73° East 433 498 39,000  Level Los Angeles Center
Mon 10:55:38 AM 35.7197 -112.1644 74° East 434 499 39,000  Level Los Angeles Center
Mon 10:56:39 AM 35.7464 -112.0506 74° East 436 502 39,000  Level Los Angeles Center
Mon 10:57:41 AM 35.7856 -111.8811 74° East 431 496 39,000  Level Los Angeles Center
Mon 10:58:43 AM 35.8192 -111.7389 74° East 434 499 39,000  Level Los Angeles Center
Mon 10:59:45 AM 35.8514 -111.5967 74° East 438 504 39,000  Level Los Angeles Center
Mon 11:00:39 AM 35.8847 -111.4528 74° East 440 506 39,000  Level Denver Center
Mon 11:01:41 AM 35.9183 -111.3081 74° East 441 507 39,000  Level Denver Center
Mon 11:02:43 AM 35.9500 -111.1628 75° East 442 509 39,000  Level Denver Center
Mon 11:03:45 AM 35.9833 -111.0164 74° East 444 511 39,000  Level Denver Center
Mon 11:04:47 AM 36.0222 -110.8403 75° East 444 511 39,000  Level Denver Center
Mon 11:05:49 AM 36.0553 -110.6950 74° East 443 510 39,000  Level Denver Center
Mon 11:06:51 AM 36.0881 -110.5486 74° East 444 511 39,000  Level Denver Center
Mon 11:07:53 AM 36.1197 -110.4025 75° East 442 509 39,000  Level Denver Center
Mon 11:08:56 AM 36.1517 -110.2547 75° East 446 513 39,000  Level Denver Center
Mon 11:09:58 AM 36.1889 -110.0844 75° East 441 507 39,000  Level Denver Center
Mon 11:11:00 AM 36.2189 -109.9431 75° East 442 509 39,000  Level Denver Center
Mon 11:12:02 AM 36.2528 -109.7794 76° East 440 506 39,000  Level Denver Center
Mon 11:13:04 AM 36.2828 -109.6394 75° East 439 505 39,000  Level Denver Center
Mon 11:14:06 AM 36.3122 -109.4983 75° East 439 505 39,000  Level Denver Center
Mon 11:15:08 AM 36.3458 -109.3328 76° East 442 509 39,000  Level Denver Center
Mon 11:16:10 AM 36.3764 -109.1914 75° East 441 507 39,000  Level Denver Center
Mon 11:17:12 AM 36.4100 -109.0256 76° East 441 507 39,000  Level Denver Center
Mon 11:18:14 AM 36.4394 -108.8817 76° East 443 510 39,000  Level Denver Center
Mon 11:19:16 AM 36.4731 -108.7147 76° East 444 511 39,000  Level Denver Center
Mon 11:20:18 AM 36.5019 -108.5719 76° East 443 510 39,000  Level Denver Center
Mon 11:21:20 AM 36.5297 -108.4308 76° East 440 506 39,000  Level Denver Center
Mon 11:22:22 AM 36.5625 -108.2678 76° East 435 501 39,000  Level Denver Center
Mon 11:23:24 AM 36.5894 -108.1275 77° East 435 501 39,000  Level Denver Center
Mon 11:24:26 AM 36.6217 -107.9633 76° East 436 502 39,000  Level Denver Center
Mon 11:25:28 AM 36.6489 -107.8228 76° East 436 502 39,000  Level Denver Center
Mon 11:26:30 AM 36.6817 -107.6575 76° East 439 505 39,000  Level Denver Center
Mon 11:27:33 AM 36.7081 -107.5172 77° East 437 503 39,000  Level Denver Center
Mon 11:28:35 AM 36.7394 -107.3517 77° East 439 505 39,000  Level Denver Center
Mon 11:29:37 AM 36.7664 -107.2078 77° East 444 511 39,000 435 Level Denver Center
Mon 11:30:39 AM 36.7986 -107.0400 76° East 445 512 39,900 823 Climbing Denver Center
Mon 11:31:41 AM 36.8256 -106.8953 77° East 447 514 40,700 532 Climbing Denver Center
Mon 11:32:43 AM 36.8569 -106.7247 77° East 452 520 41,000 145 Climbing Denver Center
Mon 11:33:45 AM 36.8831 -106.5772 77° East 454 522 41,000  Level Denver Center
Mon 11:34:47 AM 36.9144 -106.4067 77° East 451 519 41,000  Level Denver Center
Mon 11:35:49 AM 36.9425 -106.2608 76° East 450 518 41,000  Level Denver Center
Mon 11:36:51 AM 36.9692 -106.1092 78° East 451 519 41,000  Level Denver Center
Mon 11:37:53 AM 36.9978 -105.9364 78° East 454 522 41,000  Level Denver Center
Mon 11:38:55 AM 37.0250 -105.7894 77° East 454 522 41,000  Level Denver Center
Mon 11:39:57 AM 37.0547 -105.6172 78° East 454 522 41,000  Level Denver Center
Mon 11:40:59 AM 37.0806 -105.4692 78° East 455 524 41,000  Level Denver Center
Mon 11:42:02 AM 37.1106 -105.2947 78° East 458 527 41,000  Level Denver Center
Mon 11:43:04 AM 37.1342 -105.1447 79° East 458 527 41,000  Level Denver Center
Mon 11:44:06 AM 37.1639 -104.9706 78° East 458 527 41,000  Level Denver Center
Mon 11:45:08 AM 37.1889 -104.8219 78° East 458 527 41,000  Level Denver Center
Mon 11:46:10 AM 37.2172 -104.6472 78° East 458 527 41,000  Level Denver Center
Mon 11:47:12 AM 37.2422 -104.4972 78° East 459 528 41,000  Level Denver Center
Mon 11:48:14 AM 37.2697 -104.3233 79° East 457 526 41,000  Level Denver Center
Mon 11:49:16 AM 37.2933 -104.1753 79° East 455 524 41,000  Level Denver Center
Mon 11:50:18 AM 37.3206 -104.0019 79° East 457 526 41,000  Level Denver Center
Mon 11:51:20 AM 37.3450 -103.8544 78° East 456 525 41,000  Level Denver Center
Mon 11:52:22 AM 37.3722 -103.6811 79° East 458 527 41,000  Level Denver Center
Mon 11:53:24 AM 37.3958 -103.5303 79° East 461 531 41,000  Level Denver Center
Mon 11:54:26 AM 37.4228 -103.3547 79° East 461 531 41,000  Level Denver Center
Mon 11:55:28 AM 37.4458 -103.2019 79° East 464 534 41,000  Level Denver Center
Mon 11:56:31 AM 37.4722 -103.0236 79° East 464 534 41,000  Level Denver Center
Mon 11:57:33 AM 37.4956 -102.8719 79° East 462 532 41,000  Level Denver Center
Mon 11:58:35 AM 37.5217 -102.6944 79° East 461 531 41,000  Level Denver Center
Mon 11:59:19 AM 37.5339 -102.5989 81° East 461 531 41,000  Level Kansas City Center
Mon 12:00:21 PM 37.5611 -102.4222 79° East 460 529 41,000  Level Kansas City Center
Mon 12:01:23 PM 37.5817 -102.2706 80° East 459 528 41,000  Level Kansas City Center
Mon 12:02:25 PM 37.6067 -102.0953 80° East 456 525 41,000  Level Kansas City Center
Mon 12:03:27 PM 37.6281 -101.9447 80° East 456 525 41,000  Level Kansas City Center
Mon 12:04:29 PM 37.6522 -101.7697 80° East 453 521 41,000  Level Kansas City Center
Mon 12:05:31 PM 37.6731 -101.6200 80° East 454 522 41,000  Level Kansas City Center
Mon 12:06:33 PM 37.6967 -101.4456 80° East 452 520 41,000  Level Kansas City Center
Mon 12:07:35 PM 37.7169 -101.2964 80° East 450 518 41,000  Level Kansas City Center
Mon 12:08:37 PM 37.7400 -101.1228 80° East 452 520 41,000  Level Kansas City Center
Mon 12:09:39 PM 37.7606 -100.9650 81° East 453 521 41,000  Level Kansas City Center
Mon 12:10:41 PM 37.7806 -100.8128 81° East 457 526 41,000  Level Kansas City Center
Mon 12:11:43 PM 37.8044 -100.6311 80° East 463 533 41,000  Level Kansas City Center
Mon 12:12:45 PM 37.8231 -100.4789 81° East 459 528 41,000  Level Kansas City Center
Mon 12:13:47 PM 37.8456 -100.2981 81° East 463 533 41,000  Level Kansas City Center
Mon 12:14:49 PM 37.8639 -100.1442 81° East 466 536 41,000  Level Kansas City Center
Mon 12:15:51 PM 37.8864 -99.9664 81° East 461 531 41,000  Level Kansas City Center
Mon 12:16:53 PM 37.9039 -99.8119 82° East 460 529 41,000  Level Kansas City Center
Mon 12:17:55 PM 37.9222 -99.6594 81° East 458 527 41,000  Level Kansas City Center
Mon 12:18:57 PM 37.9439 -99.4794 81° East 456 525 41,000  Level Kansas City Center
Mon 12:19:59 PM 37.9606 -99.3183 82° East 460 529 41,000  Level Kansas City Center
Mon 12:21:01 PM 37.9803 -99.1586 81° East 459 528 41,000  Level Kansas City Center
Mon 12:22:04 PM 37.9992 -98.9978 81° East 460 529 41,000  Level Kansas City Center
Mon 12:23:06 PM 38.0183 -98.8375 81° East 460 529 41,000  Level Kansas City Center
Mon 12:24:08 PM 38.0367 -98.6761 82° East 461 531 41,000  Level Kansas City Center
Mon 12:25:10 PM 38.0589 -98.4811 82° East 464 534 41,000  Level Kansas City Center
Mon 12:26:12 PM 38.0778 -98.3178 82° East 466 536 41,000  Level Kansas City Center
Mon 12:27:14 PM 38.0950 -98.1550 82° East 463 533 41,000  Level Kansas City Center
Mon 12:28:16 PM 38.1108 -97.9961 83° East 467 537 41,000  Level Kansas City Center
Mon 12:29:18 PM 38.1314 -97.8050 82° East 470 541 41,000  Level Kansas City Center
Mon 12:30:20 PM 38.1458 -97.6569 83° East 470 541 41,000  Level Kansas City Center
Mon 12:31:22 PM 38.1644 -97.4686 83° East 473 544 41,000  Level Kansas City Center
Mon 12:32:24 PM 38.1797 -97.3169 83° East 479 551 41,000 -774 Level Kansas City Center
Mon 12:33:26 PM 38.1961 -97.1508 83° East 475 547 39,400 -2,323 Descending Kansas City Center
Mon 12:34:28 PM 38.2156 -96.9514 83° East 473 544 36,200 -2,758 Descending Kansas City Center
Mon 12:35:30 PM 38.2311 -96.7853 83° East 474 545 33,700 -2,226 Descending Kansas City Center
Mon 12:36:32 PM 38.2467 -96.6225 83° East 466 536 31,600 -2,081 Descending Kansas City Center
Mon 12:37:34 PM 38.2622 -96.4486 83° East 455 524 29,400 -2,016 Descending Kansas City Center
Mon 12:38:37 PM 38.2767 -96.2983 83° East 448 516 27,400 -2,081 Descending Kansas City Center
Mon 12:39:38 PM 38.3017 -96.1267 79° East 447 514 25,100 -2,098 Descending Kansas City Center
Mon 12:40:40 PM 38.3769 -96.0189 48° Northeast 430 495 23,100 -2,032 Descending Kansas City Center
Mon 12:41:42 PM 38.4667 -95.8931 48° Northeast 430 495 20,900 -1,984 Descending Kansas City Center
Mon 12:42:44 PM 38.5417 -95.7875 48° Northeast 423 487 19,000 -1,920 Descending Kansas City Center
Mon 12:43:47 PM 38.6269 -95.6697 47° Northeast 408 470 16,900 -1,968 Descending Kansas City Center
Mon 12:44:49 PM 38.6986 -95.5708 47° Northeast 398 458 14,900 -1,839 Descending Kansas City Center
Mon 12:45:51 PM 38.7664 -95.4747 48° Northeast 385 443 13,100 -1,548 Descending Kansas City Center
Mon 12:46:53 PM 38.8275 -95.3603 56° Northeast 348 400 11,700 -1,452 Descending Kansas City Center
Mon 12:47:55 PM 38.8783 -95.2672 55° Northeast 336 387 10,100 -1,403 Descending Kansas City Center
Mon 12:48:57 PM 38.9325 -95.1658 55° Northeast 309 356 8,800 -1,113 Descending Kansas City Center
Mon 12:49:59 PM 38.9767 -95.0861 55° Northeast 291 335 7,800 -1,306 Descending Kansas City Center
Mon 12:51:01 PM 39.0247 -94.9953 56° Northeast 278 320 6,100 -1,355 Descending Kansas City Center
Mon 12:52:03 PM 39.0714 -94.9094 55° Northeast 265 305 5,000 -1,161 Descending Kansas City Center
Mon 12:53:05 PM 39.1092 -94.8406 55° Northeast 250 288 3,700 -968 Descending Kansas City Center
Mon 12:54:07 PM 39.1619 -94.7739 44° Northeast 236 272 3,000 -532 Descending Kansas City Center
Mon 12:55:09 PM 39.2064 -94.7550 18° North 174 200 2,600 -435 Descending Kansas City Center
Mon 12:56:11 PM 39.2439 -94.7436 13° North 148 170 2,100 -629 Descending Kansas City Center
Mon 12:57:13 PM 39.2839 -94.7311 14° North 128 147 1,300 -774 Descending Kansas City Center

Login

Don't have an account? Register now (free) for customized features, flight alerts, and more!